createdAt,value
2022-11-21T00:02:11.559Z,10.10
2022-11-21T00:04:39.273Z,10.00
2022-11-21T00:07:07.111Z,9.90
2022-11-21T00:09:36.939Z,9.80
2022-11-21T00:12:05.052Z,9.80
2022-11-21T00:14:34.648Z,9.90
2022-11-21T00:17:04.102Z,9.90
2022-11-21T00:19:33.517Z,9.90
2022-11-21T00:22:01.421Z,10.00
2022-11-21T00:24:29.531Z,10.10
2022-11-21T00:26:57.513Z,10.00
2022-11-21T00:29:25.984Z,10.10
2022-11-21T00:31:54.185Z,10.10
2022-11-21T00:34:23.276Z,10.20
2022-11-21T00:36:51.173Z,10.00
2022-11-21T00:39:18.888Z,10.00
2022-11-21T00:41:46.882Z,10.10
2022-11-21T00:44:14.621Z,10.10
2022-11-21T00:46:42.559Z,10.10
2022-11-21T00:49:10.559Z,10.10
2022-11-21T00:51:40.251Z,10.10
2022-11-21T00:54:09.503Z,10.10
2022-11-21T00:56:37.390Z,10.10
2022-11-21T00:59:05.349Z,10.10
2022-11-21T01:01:33.419Z,10.00
2022-11-21T01:04:01.338Z,9.90
2022-11-21T01:06:29.770Z,9.90
2022-11-21T01:08:59.350Z,9.80
2022-11-21T01:11:27.269Z,9.70
2022-11-21T01:13:55.310Z,9.60
2022-11-21T01:16:24.909Z,9.50
2022-11-21T01:18:53.248Z,9.70
2022-11-21T01:21:23.270Z,9.80
2022-11-21T01:23:51.915Z,9.70
2022-11-21T01:26:22.638Z,9.70
2022-11-21T01:28:51.755Z,9.70
2022-11-21T01:31:21.739Z,9.60
2022-11-21T01:33:50.548Z,9.60
2022-11-21T01:36:20.438Z,9.60
2022-11-21T01:39:04.858Z,9.50
2022-11-21T01:41:36.347Z,9.50
2022-11-21T01:44:13.796Z,9.50
2022-11-21T01:46:41.779Z,9.50
2022-11-21T01:49:12.520Z,9.60
2022-11-21T01:51:43.464Z,9.60
2022-11-21T01:54:15.136Z,9.50
2022-11-21T01:56:48.243Z,9.40
2022-11-21T01:59:20.892Z,9.40
2022-11-21T02:01:51.552Z,9.40
2022-11-21T02:04:20.071Z,8.90
2022-11-21T02:06:47.813Z,8.40
2022-11-21T02:09:15.792Z,8.50
2022-11-21T02:11:50.163Z,8.80
2022-11-21T02:14:18.272Z,9.00
2022-11-21T02:16:47.056Z,9.10
2022-11-21T02:19:21.026Z,9.20
2022-11-21T02:21:57.551Z,9.30
2022-11-21T02:24:33.269Z,9.20
2022-11-21T02:27:03.007Z,9.20
2022-11-21T02:29:31.695Z,9.30
2022-11-21T02:32:00.781Z,9.20
2022-11-21T02:34:28.674Z,9.20
2022-11-21T02:36:56.874Z,9.10
2022-11-21T02:39:30.921Z,9.10
2022-11-21T02:42:07.214Z,9.10
2022-11-21T02:44:43.868Z,9.10
2022-11-21T02:47:11.307Z,9.10
2022-11-21T02:49:45.155Z,9.10
2022-11-21T02:52:13.111Z,9.10
2022-11-21T02:54:40.885Z,9.10
2022-11-21T02:57:10.092Z,9.10
2022-11-21T02:59:38.264Z,9.10
2022-11-21T03:02:06.473Z,9.10
2022-11-21T03:04:34.533Z,8.90
2022-11-21T03:07:02.765Z,8.90
2022-11-21T03:09:31.075Z,8.80
2022-11-21T03:11:59.753Z,8.80
2022-11-21T03:14:29.365Z,8.80
2022-11-21T03:16:57.875Z,8.70
2022-11-21T03:19:25.904Z,8.70
2022-11-21T03:21:54.034Z,8.80
2022-11-21T03:24:22.294Z,8.80
2022-11-21T03:26:50.373Z,8.90
2022-11-21T03:29:18.322Z,8.90
2022-11-21T03:31:47.908Z,8.90
2022-11-21T03:34:15.955Z,8.90
2022-11-21T03:36:44.154Z,9.00
2022-11-21T03:39:12.124Z,8.80
2022-11-21T03:41:40.104Z,8.90
2022-11-21T03:44:09.925Z,8.90
2022-11-21T03:46:40.054Z,8.80
2022-11-21T03:49:10.153Z,8.80
2022-11-21T03:51:39.163Z,8.70
2022-11-21T03:54:08.053Z,8.80
2022-11-21T03:56:36.733Z,8.80
2022-11-21T03:59:04.652Z,8.80
2022-11-21T04:01:36.680Z,8.90
2022-11-21T04:04:05.866Z,8.90
2022-11-21T04:06:35.473Z,8.80
2022-11-21T04:09:03.563Z,8.80
2022-11-21T04:11:31.623Z,8.80
2022-11-21T04:13:59.923Z,8.90
2022-11-21T04:16:27.843Z,8.80
2022-11-21T04:18:56.005Z,8.80
2022-11-21T04:21:23.952Z,8.90
2022-11-21T04:23:53.522Z,9.00
2022-11-21T04:26:21.424Z,9.10
2022-11-21T04:28:49.423Z,9.00
2022-11-21T04:31:17.683Z,8.90
2022-11-21T04:33:45.715Z,8.80
2022-11-21T04:36:13.963Z,8.80
2022-11-21T04:38:42.685Z,8.80
2022-11-21T04:41:12.184Z,8.60
2022-11-21T04:43:40.314Z,8.60
2022-11-21T04:46:08.333Z,8.60
2022-11-21T04:48:36.424Z,8.70
2022-11-21T04:51:04.594Z,8.70
2022-11-21T04:53:32.554Z,8.70
2022-11-21T04:56:03.366Z,8.70
2022-11-21T04:58:33.364Z,8.70
2022-11-21T05:01:07.459Z,8.60
2022-11-21T05:03:35.933Z,8.60
2022-11-21T05:06:04.334Z,8.60
2022-11-21T05:08:32.505Z,8.60
2022-11-21T05:11:18.683Z,8.60
2022-11-21T05:13:48.284Z,8.60
2022-11-21T05:16:16.312Z,8.60
2022-11-21T05:18:44.353Z,8.60
2022-11-21T05:21:12.574Z,8.60
2022-11-21T05:23:40.714Z,8.50
2022-11-21T05:26:08.704Z,8.50
2022-11-21T05:28:36.984Z,8.50
2022-11-21T05:31:06.477Z,8.40
2022-11-21T05:33:34.595Z,8.40
2022-11-21T05:36:02.584Z,8.50
2022-11-21T05:38:30.473Z,8.60
2022-11-21T05:40:58.255Z,8.60
2022-11-21T05:43:44.388Z,8.70
2022-11-21T05:46:16.360Z,8.40
2022-11-21T05:48:44.481Z,8.60
2022-11-21T05:51:13.906Z,8.60
2022-11-21T05:53:42.415Z,8.50
2022-11-21T05:56:11.970Z,8.40
2022-11-21T05:58:40.339Z,8.40
2022-11-21T06:01:10.075Z,8.50
2022-11-21T06:03:41.338Z,8.60
2022-11-21T06:06:10.969Z,8.70
2022-11-21T06:08:40.762Z,8.70
2022-11-21T06:11:10.573Z,8.70
2022-11-21T06:13:38.796Z,8.70
2022-11-21T06:16:09.220Z,8.80
2022-11-21T06:18:40.342Z,8.80
2022-11-21T06:21:09.491Z,8.80
2022-11-21T06:23:37.561Z,8.70
2022-11-21T06:26:07.074Z,8.60
2022-11-21T06:28:36.228Z,8.70
2022-11-21T06:31:05.230Z,8.70
2022-11-21T06:33:33.299Z,8.80
2022-11-21T06:36:04.484Z,8.80
2022-11-21T06:38:32.433Z,8.80
2022-11-21T06:41:04.808Z,8.90
2022-11-21T06:43:32.844Z,8.90
2022-11-21T06:46:03.701Z,8.90
2022-11-21T06:48:37.816Z,9.00
2022-11-21T06:51:08.149Z,9.00
2022-11-21T06:53:36.228Z,9.00
2022-11-21T06:56:04.790Z,9.10
2022-11-21T06:58:33.143Z,9.00
2022-11-21T07:01:06.052Z,9.00
2022-11-21T07:03:34.465Z,9.00
2022-11-21T07:06:03.254Z,9.00
2022-11-21T07:08:36.332Z,8.90
2022-11-21T07:13:54.322Z,9.10
2022-11-21T07:16:22.225Z,9.10
2022-11-21T07:18:50.403Z,9.20
2022-11-21T07:21:18.334Z,9.10
2022-11-21T07:23:48.749Z,9.10
2022-11-21T07:26:16.756Z,9.20
2022-11-21T07:28:44.752Z,9.20
2022-11-21T07:31:14.239Z,9.10
2022-11-21T07:33:43.879Z,9.10
2022-11-21T07:36:12.415Z,9.20
2022-11-21T07:38:42.046Z,9.40
2022-11-21T07:41:11.833Z,9.50
2022-11-21T07:43:39.833Z,9.50
2022-11-21T07:46:09.614Z,9.40
2022-11-21T07:48:38.385Z,9.50
2022-11-21T07:51:06.614Z,9.70
2022-11-21T07:53:34.664Z,9.70
2022-11-21T07:56:02.685Z,9.80
2022-11-21T07:58:32.123Z,9.80
2022-11-21T08:01:03.246Z,9.90
2022-11-21T08:03:31.524Z,9.90
2022-11-21T08:06:03.925Z,9.80
2022-11-21T08:08:32.293Z,9.90
2022-11-21T08:11:04.413Z,9.80
2022-11-21T08:13:33.966Z,9.70
2022-11-21T08:16:03.856Z,9.70
2022-11-21T08:18:31.818Z,9.80
2022-11-21T08:21:02.326Z,9.90
2022-11-21T08:23:30.704Z,9.90
2022-11-21T08:25:59.257Z,9.90
2022-11-21T08:28:27.427Z,9.90
2022-11-21T08:30:56.943Z,10.00
2022-11-21T08:33:24.933Z,10.00
2022-11-21T08:35:52.979Z,10.10
2022-11-21T08:38:21.103Z,10.20
2022-11-21T08:41:11.131Z,10.30
2022-11-21T08:43:42.876Z,10.40
2022-11-21T08:46:12.708Z,10.50
2022-11-21T08:48:40.661Z,10.60
2022-11-21T08:51:08.538Z,10.70
2022-11-21T08:53:36.556Z,10.90
2022-11-21T08:56:04.768Z,11.00
2022-11-21T08:58:33.020Z,11.00
2022-11-21T09:01:00.821Z,10.90
2022-11-21T09:03:31.503Z,11.00
2022-11-21T09:06:00.648Z,11.00
2022-11-21T09:08:29.150Z,11.20
2022-11-21T09:10:57.280Z,11.30
2022-11-21T09:13:25.267Z,11.30
2022-11-21T09:16:12.162Z,11.40
2022-11-21T09:18:42.656Z,11.30
2022-11-21T09:21:14.137Z,11.40
2022-11-21T09:23:41.926Z,11.40
2022-11-21T09:26:10.385Z,11.30
2022-11-21T09:28:38.485Z,11.40
2022-11-21T09:31:06.820Z,11.50
2022-11-21T09:33:34.950Z,11.60
2022-11-21T09:36:04.879Z,11.70
2022-11-21T09:38:32.926Z,11.80
2022-11-21T09:41:32.639Z,12.00
2022-11-21T09:44:11.311Z,12.00
2022-11-21T09:46:46.494Z,12.10
2022-11-21T09:49:16.600Z,12.20
2022-11-21T09:51:46.652Z,12.40
2022-11-21T09:54:20.169Z,12.50
2022-11-21T09:56:49.440Z,12.60
2022-11-21T09:59:33.200Z,12.60
2022-11-21T10:02:01.749Z,12.70
2022-11-21T10:04:31.009Z,12.80
2022-11-21T10:07:05.451Z,12.90
2022-11-21T10:09:45.181Z,13.00
2022-11-21T10:12:37.661Z,13.00
2022-11-21T10:15:19.610Z,13.20
2022-11-21T10:17:57.948Z,13.30
2022-11-21T10:20:40.194Z,13.40
2022-11-21T10:23:28.240Z,13.30
2022-11-21T10:25:57.761Z,13.20
2022-11-21T10:28:32.680Z,13.10
2022-11-21T10:31:01.729Z,13.20
2022-11-21T10:33:40.525Z,13.30
2022-11-21T10:36:20.996Z,13.30
2022-11-21T10:38:52.702Z,13.30
2022-11-21T10:41:35.500Z,13.40
2022-11-21T10:44:28.171Z,13.60
2022-11-21T10:46:57.193Z,13.60
2022-11-21T10:49:26.115Z,13.70
2022-11-21T10:52:01.955Z,13.70
2022-11-21T10:54:34.154Z,13.90
2022-11-21T10:57:07.902Z,14.10
2022-11-21T10:59:35.755Z,14.10
2022-11-21T11:02:23.365Z,14.10
2022-11-21T11:05:21.820Z,14.10
2022-11-21T11:08:08.148Z,14.20
2022-11-21T11:10:39.478Z,14.30
2022-11-21T11:13:50.297Z,14.20
2022-11-21T11:16:21.959Z,14.20
2022-11-21T11:18:57.527Z,14.30
2022-11-21T11:21:27.498Z,14.20
2022-11-21T11:24:06.990Z,14.20
2022-11-21T11:26:57.120Z,14.30
2022-11-21T11:29:27.129Z,14.30
2022-11-21T11:31:57.449Z,14.30
2022-11-21T11:34:28.774Z,14.40
2022-11-21T11:37:04.493Z,14.40
2022-11-21T11:39:39.516Z,14.40
2022-11-21T11:42:57.919Z,14.30
2022-11-21T11:46:07.529Z,14.30
2022-11-21T11:48:56.509Z,14.30
2022-11-21T11:51:32.377Z,14.40
2022-11-21T11:54:04.151Z,14.50
2022-11-21T11:56:34.597Z,14.60
2022-11-21T11:59:12.005Z,14.60
2022-11-21T12:01:50.047Z,14.60
2022-11-21T12:04:19.979Z,14.70
2022-11-21T12:07:46.612Z,14.80
2022-11-21T12:09:49.008Z,14.80
2022-11-21T12:12:28.770Z,14.90
2022-11-21T12:15:28.123Z,15.00
2022-11-21T12:18:10.456Z,14.90
2022-11-21T12:20:46.476Z,15.00
2022-11-21T12:23:15.665Z,15.00
2022-11-21T12:25:54.896Z,14.90
2022-11-21T12:28:29.047Z,14.80
2022-11-21T12:31:13.567Z,14.70
2022-11-21T12:33:52.375Z,14.60
2022-11-21T12:36:32.706Z,14.50
2022-11-21T12:39:37.176Z,14.40
2022-11-21T12:42:30.634Z,14.40
2022-11-21T12:45:20.776Z,14.30
2022-11-21T12:48:39.925Z,14.20
2022-11-21T12:51:58.878Z,14.10
2022-11-21T12:55:01.123Z,13.90
2022-11-21T12:57:41.994Z,13.90
2022-11-21T13:00:15.816Z,13.90
2022-11-21T13:03:25.923Z,13.90
2022-11-21T13:05:56.652Z,13.90
2022-11-21T13:08:28.633Z,13.90
2022-11-21T13:11:20.853Z,13.90
2022-11-21T13:13:52.447Z,13.90
2022-11-21T13:16:40.170Z,13.80
2022-11-21T13:19:21.949Z,13.70
2022-11-21T13:21:51.404Z,13.80
2022-11-21T13:24:56.704Z,13.70
2022-11-21T13:27:33.526Z,13.70
2022-11-21T13:30:23.983Z,13.80
2022-11-21T13:32:53.520Z,13.90
2022-11-21T13:36:05.779Z,13.90
2022-11-21T13:39:10.937Z,13.80
2022-11-21T13:42:39.307Z,13.70
2022-11-21T13:45:41.628Z,13.70
2022-11-21T13:48:36.752Z,13.60
2022-11-21T13:51:36.222Z,13.60
2022-11-21T13:54:37.470Z,13.60
2022-11-21T13:57:29.950Z,13.50
2022-11-21T14:00:20.078Z,13.40
2022-11-21T14:03:29.784Z,13.40
2022-11-21T14:06:19.595Z,13.30
2022-11-21T14:09:20.578Z,13.30
2022-11-21T14:11:50.629Z,13.20
2022-11-21T14:14:28.063Z,13.10
2022-11-21T14:17:24.400Z,13.10
2022-11-21T14:19:56.405Z,13.20
2022-11-21T14:22:35.150Z,13.20
2022-11-21T14:25:08.928Z,13.30
2022-11-21T14:27:45.205Z,13.30
2022-11-21T14:30:29.305Z,13.40
2022-11-21T14:32:57.192Z,13.50
2022-11-21T14:35:26.453Z,13.60
2022-11-21T14:37:55.101Z,13.60
2022-11-21T14:40:24.442Z,13.70
2022-11-21T14:42:52.278Z,13.70
2022-11-21T14:45:22.008Z,13.80
2022-11-21T14:47:50.848Z,13.90
2022-11-21T14:50:27.969Z,13.90
2022-11-21T14:52:58.976Z,13.90
2022-11-21T14:55:31.322Z,13.90
2022-11-21T14:58:01.451Z,13.90
2022-11-21T15:00:57.875Z,13.80
2022-11-21T15:03:21.702Z,13.80
2022-11-21T15:06:05.161Z,13.70
2022-11-21T15:11:26.380Z,13.60
2022-11-21T15:14:14.859Z,13.50
2022-11-21T15:16:44.075Z,13.40
2022-11-21T15:19:11.957Z,13.30
2022-11-21T15:21:46.644Z,13.30
2022-11-21T15:24:27.000Z,13.20
2022-11-21T15:26:55.357Z,13.20
2022-11-21T15:29:24.077Z,13.10
2022-11-21T15:32:09.153Z,13.10
2022-11-21T15:34:38.560Z,13.00
2022-11-21T15:37:15.491Z,12.90
2022-11-21T15:39:44.991Z,12.90
2022-11-21T15:42:42.852Z,12.80
2022-11-21T15:45:35.522Z,12.80
2022-11-21T15:48:07.383Z,12.70
2022-11-21T15:50:35.204Z,12.70
2022-11-21T15:53:04.422Z,12.70
2022-11-21T15:55:32.675Z,12.70
2022-11-21T15:58:00.424Z,12.60
2022-11-21T16:00:28.340Z,12.60
2022-11-21T16:03:04.981Z,12.60
2022-11-21T16:05:32.503Z,12.50
2022-11-21T16:08:00.280Z,12.50
2022-11-21T16:10:29.532Z,12.50
2022-11-21T16:12:57.286Z,12.50
2022-11-21T16:15:25.546Z,12.50
2022-11-21T16:17:53.461Z,12.50
2022-11-21T16:20:21.649Z,12.40
2022-11-21T16:22:49.966Z,12.50
2022-11-21T16:25:18.216Z,12.50
2022-11-21T16:27:47.420Z,12.40
2022-11-21T16:30:15.863Z,12.40
2022-11-21T16:32:43.617Z,12.40
2022-11-21T16:35:11.482Z,12.40
2022-11-21T16:37:40.038Z,12.40
2022-11-21T16:40:10.230Z,12.50
2022-11-21T16:42:38.134Z,12.50
2022-11-21T16:45:08.303Z,12.60
2022-11-21T16:47:37.569Z,12.50
2022-11-21T16:50:06.138Z,12.60
2022-11-21T16:52:35.786Z,12.60
2022-11-21T16:55:04.611Z,12.60
2022-11-21T16:57:34.456Z,12.60
2022-11-21T17:00:02.754Z,12.60
2022-11-21T17:02:31.904Z,12.60
2022-11-21T17:04:59.665Z,12.60
2022-11-21T17:07:27.442Z,12.60
2022-11-21T17:09:55.209Z,12.60
2022-11-21T17:12:23.547Z,12.60
2022-11-21T17:14:51.709Z,12.50
2022-11-21T17:17:19.454Z,12.50
2022-11-21T17:19:49.076Z,12.40
2022-11-21T17:22:21.531Z,12.50
2022-11-21T17:24:53.358Z,12.40
2022-11-21T17:27:21.494Z,12.40
2022-11-21T17:29:49.224Z,12.40
2022-11-21T17:32:17.872Z,12.40
2022-11-21T17:34:47.327Z,12.40
2022-11-21T17:37:15.153Z,12.40
2022-11-21T17:39:43.257Z,12.40
2022-11-21T17:42:11.071Z,12.50
2022-11-21T17:44:39.122Z,12.60
2022-11-21T17:47:07.225Z,12.60
2022-11-21T17:49:37.355Z,12.50
2022-11-21T17:52:07.682Z,12.50
2022-11-21T17:54:35.717Z,12.60
2022-11-21T17:57:03.946Z,12.50
2022-11-21T17:59:32.042Z,12.60
2022-11-21T18:02:01.034Z,12.50
2022-11-21T18:04:30.025Z,12.50
2022-11-21T18:06:58.022Z,12.50
2022-11-21T18:09:27.889Z,12.40
2022-11-21T18:11:58.218Z,12.40
2022-11-21T18:14:26.668Z,12.40
2022-11-21T18:16:55.312Z,12.40
2022-11-21T18:19:23.326Z,12.40
2022-11-21T18:21:52.148Z,12.40
2022-11-21T18:24:20.849Z,12.40
2022-11-21T18:26:50.407Z,12.40
2022-11-21T18:32:07.167Z,12.40
2022-11-21T18:34:35.061Z,12.40
2022-11-21T18:37:03.248Z,12.50
2022-11-21T18:39:31.273Z,12.40
2022-11-21T18:42:00.947Z,12.40
2022-11-21T18:44:28.906Z,12.40
2022-11-21T18:46:56.875Z,12.40
2022-11-21T18:49:24.896Z,12.40
2022-11-21T18:51:52.911Z,12.40
2022-11-21T18:54:21.115Z,12.40
2022-11-21T18:56:49.430Z,12.40
2022-11-21T18:59:18.935Z,12.40
2022-11-21T19:01:47.389Z,12.30
2022-11-21T19:04:15.382Z,12.30
2022-11-21T19:06:43.543Z,12.30
2022-11-21T19:09:12.105Z,12.30
2022-11-21T19:11:41.030Z,12.30
2022-11-21T19:14:09.384Z,12.30
2022-11-21T19:16:39.186Z,12.30
2022-11-21T19:21:56.083Z,12.30
2022-11-21T19:24:24.029Z,12.20
2022-11-21T19:26:52.027Z,12.20
2022-11-21T19:29:19.970Z,12.20
2022-11-21T19:31:49.489Z,12.20
2022-11-21T19:34:18.274Z,12.20
2022-11-21T19:36:46.622Z,12.20
2022-11-21T19:39:14.655Z,12.10
2022-11-21T19:41:42.873Z,12.10
2022-11-21T19:44:11.809Z,12.10
2022-11-21T19:46:40.542Z,12.10
2022-11-21T19:49:11.693Z,12.10
2022-11-21T19:51:41.580Z,12.00
2022-11-21T19:54:11.468Z,12.00
2022-11-21T19:56:39.943Z,12.00
2022-11-21T19:59:08.116Z,12.00
2022-11-21T20:01:36.406Z,12.00
2022-11-21T20:04:05.977Z,12.00
2022-11-21T20:06:37.339Z,12.00
2022-11-21T20:09:07.536Z,12.00
2022-11-21T20:11:36.480Z,12.00
2022-11-21T20:14:04.698Z,12.00
2022-11-21T20:16:34.165Z,12.00
2022-11-21T20:19:03.618Z,11.90
2022-11-21T20:21:31.751Z,11.90
2022-11-21T20:24:01.780Z,11.90
2022-11-21T20:26:30.940Z,11.90
2022-11-21T20:28:59.991Z,11.90
2022-11-21T20:31:29.795Z,11.90
2022-11-21T20:34:01.042Z,11.90
2022-11-21T20:36:31.012Z,11.90
2022-11-21T20:39:01.734Z,11.90
2022-11-21T20:41:31.705Z,11.90
2022-11-21T20:46:49.374Z,11.80
2022-11-21T20:49:17.930Z,11.80
2022-11-21T20:54:36.577Z,11.90
2022-11-21T20:57:04.889Z,11.80
2022-11-21T20:59:33.109Z,11.80
2022-11-21T21:02:01.536Z,11.80
2022-11-21T21:04:29.812Z,11.80
2022-11-21T21:06:57.853Z,11.80
2022-11-21T21:09:25.930Z,11.80
2022-11-21T21:11:55.631Z,11.80
2022-11-21T21:14:24.188Z,11.80
2022-11-21T21:16:52.612Z,11.70
2022-11-21T21:19:21.898Z,11.70
2022-11-21T21:21:50.780Z,11.70
2022-11-21T21:24:19.172Z,11.70
2022-11-21T21:26:48.655Z,11.60
2022-11-21T21:29:22.373Z,11.60
2022-11-21T21:31:52.391Z,11.60
2022-11-21T21:34:22.699Z,11.60
2022-11-21T21:36:51.268Z,11.50
2022-11-21T21:39:19.606Z,11.60
2022-11-21T21:41:48.053Z,11.60
2022-11-21T21:44:17.932Z,11.60
2022-11-21T21:46:46.265Z,11.70
2022-11-21T21:49:14.632Z,11.60
2022-11-21T21:51:42.881Z,11.60
2022-11-21T21:54:20.021Z,11.60
2022-11-21T21:56:48.370Z,11.60
2022-11-21T21:59:20.048Z,11.60
2022-11-21T22:01:48.428Z,11.60
2022-11-21T22:04:16.543Z,11.60
2022-11-21T22:06:45.001Z,11.60
2022-11-21T22:09:13.501Z,11.60
2022-11-21T22:11:41.770Z,11.60
2022-11-21T22:14:13.019Z,11.60
2022-11-21T22:16:43.499Z,11.60
2022-11-21T22:19:11.613Z,11.60
2022-11-21T22:21:39.995Z,11.60
2022-11-21T22:24:28.703Z,11.70
2022-11-21T22:26:57.355Z,11.70
2022-11-21T22:29:25.612Z,11.70
2022-11-21T22:31:55.273Z,11.60
2022-11-21T22:34:23.620Z,11.70
2022-11-21T22:36:52.018Z,11.80
2022-11-21T22:39:20.366Z,11.80
2022-11-21T22:41:48.570Z,11.80
2022-11-21T22:44:17.046Z,11.80
2022-11-21T22:46:45.358Z,11.80
2022-11-21T22:49:14.835Z,11.80
2022-11-21T22:51:44.013Z,11.80
2022-11-21T22:54:13.120Z,11.80
2022-11-21T22:56:41.331Z,11.80
2022-11-21T22:59:11.964Z,11.80
2022-11-21T23:01:40.125Z,11.70
2022-11-21T23:04:08.204Z,11.70
2022-11-21T23:06:37.885Z,11.80
2022-11-21T23:09:05.911Z,11.80
2022-11-21T23:11:40.300Z,11.80
2022-11-21T23:14:09.432Z,11.80
2022-11-21T23:16:37.613Z,11.70
2022-11-21T23:19:05.953Z,11.70
2022-11-21T23:21:34.441Z,11.70
2022-11-21T23:24:04.531Z,11.70
2022-11-21T23:26:32.984Z,11.80
2022-11-21T23:29:06.670Z,11.80
2022-11-21T23:31:36.833Z,11.80
2022-11-21T23:34:05.073Z,11.80
2022-11-21T23:36:33.361Z,11.80
2022-11-21T23:39:01.414Z,11.80
2022-11-21T23:41:31.293Z,11.80
2022-11-21T23:44:02.523Z,11.80
2022-11-21T23:46:31.700Z,11.70
2022-11-21T23:49:00.042Z,11.70
2022-11-21T23:51:28.314Z,11.70
2022-11-21T23:53:56.510Z,11.80
2022-11-21T23:56:24.610Z,11.80
2022-11-21T23:58:54.390Z,11.80
